createdAt,value
2019-03-28T00:02:30.969Z,12.91
2019-03-28T00:07:36.087Z,12.93
2019-03-28T00:12:38.745Z,12.88
2019-03-28T00:17:41.328Z,12.88
2019-03-28T00:22:50.814Z,12.89
2019-03-28T00:27:53.521Z,12.81
2019-03-28T00:32:56.132Z,12.79
2019-03-28T00:37:58.779Z,12.77
2019-03-28T00:43:01.479Z,12.73
2019-03-28T00:48:05.355Z,12.73
2019-03-28T00:53:08.066Z,12.70
2019-03-28T00:58:12.133Z,12.74
2019-03-28T01:03:14.849Z,12.70
2019-03-28T01:08:17.602Z,12.70
2019-03-28T01:13:20.200Z,12.70
2019-03-28T01:18:22.819Z,12.69
2019-03-28T01:23:25.400Z,12.70
2019-03-28T01:28:28.011Z,12.69
2019-03-28T01:33:30.622Z,12.64
2019-03-28T01:38:33.252Z,12.65
2019-03-28T01:43:35.937Z,12.42
2019-03-28T01:48:38.549Z,12.46
2019-03-28T01:53:41.285Z,12.46
2019-03-28T01:58:43.897Z,12.48
2019-03-28T02:03:47.611Z,12.49
2019-03-28T02:08:50.254Z,12.45
2019-03-28T02:13:52.971Z,12.41
2019-03-28T02:18:55.568Z,12.31
2019-03-28T02:23:58.161Z,12.32
2019-03-28T02:29:00.762Z,12.27
2019-03-28T02:34:03.416Z,12.23
2019-03-28T02:39:06.132Z,12.20
2019-03-28T02:44:08.718Z,12.14
2019-03-28T02:49:11.442Z,12.08
2019-03-28T02:54:14.206Z,12.09
2019-03-28T02:59:16.820Z,12.02
2019-03-28T03:04:19.434Z,12.05
2019-03-28T03:09:22.145Z,12.09
2019-03-28T03:14:24.771Z,11.95
2019-03-28T03:19:27.403Z,11.92
2019-03-28T03:24:30.033Z,11.95
2019-03-28T03:29:32.660Z,11.97
2019-03-28T03:34:35.323Z,12.03
2019-03-28T03:39:37.913Z,12.05
2019-03-28T03:44:42.009Z,11.96
2019-03-28T03:49:45.012Z,11.95
2019-03-28T03:54:47.748Z,11.99
2019-03-28T03:59:50.442Z,11.94
2019-03-28T04:04:56.470Z,11.83
2019-03-28T04:09:57.648Z,11.92
2019-03-28T04:15:02.182Z,11.84
2019-03-28T04:20:06.776Z,11.84
2019-03-28T04:25:09.344Z,11.93
2019-03-28T04:30:12.260Z,11.91
2019-03-28T04:35:14.732Z,12.05
2019-03-28T04:40:17.287Z,12.01
2019-03-28T04:45:19.930Z,11.98
2019-03-28T04:50:22.491Z,11.90
2019-03-28T04:55:25.223Z,11.92
2019-03-28T05:00:27.846Z,11.95
2019-03-28T05:05:30.444Z,11.96
2019-03-28T05:10:34.230Z,11.93
2019-03-28T05:15:36.829Z,11.83
2019-03-28T05:20:42.647Z,11.93
2019-03-28T05:25:45.735Z,11.93
2019-03-28T05:30:48.362Z,11.96
2019-03-28T05:35:50.965Z,11.95
2019-03-28T05:40:53.612Z,11.95
2019-03-28T05:45:56.298Z,11.94
2019-03-28T05:50:58.944Z,11.95
2019-03-28T05:56:01.571Z,11.98
2019-03-28T06:01:04.213Z,11.97
2019-03-28T06:06:13.434Z,12.03
2019-03-28T06:11:16.099Z,12.02
2019-03-28T06:16:19.883Z,12.00
2019-03-28T06:21:22.497Z,11.95
2019-03-28T06:26:25.148Z,11.98
2019-03-28T06:31:27.721Z,12.04
2019-03-28T06:36:30.318Z,12.07
2019-03-28T06:41:32.908Z,12.13
2019-03-28T06:46:35.521Z,12.11
2019-03-28T06:51:38.148Z,12.17
2019-03-28T06:56:40.772Z,12.14
2019-03-28T07:01:43.392Z,12.23
2019-03-28T07:06:46.000Z,12.21
2019-03-28T07:11:48.674Z,12.36
2019-03-28T07:16:51.245Z,12.41
2019-03-28T07:21:53.894Z,12.46
2019-03-28T07:26:56.499Z,12.51
2019-03-28T07:31:59.132Z,12.48
2019-03-28T07:37:01.747Z,12.45
2019-03-28T07:42:04.511Z,12.61
2019-03-28T07:47:07.127Z,12.71
2019-03-28T07:52:09.812Z,12.78
2019-03-28T07:57:12.464Z,12.83
2019-03-28T08:02:15.076Z,12.93
2019-03-28T08:07:17.731Z,12.99
2019-03-28T08:12:23.318Z,13.02
2019-03-28T08:17:27.094Z,13.03
2019-03-28T08:22:29.975Z,13.09
2019-03-28T08:27:32.606Z,13.04
2019-03-28T08:32:35.667Z,13.22
2019-03-28T08:37:39.171Z,13.31
2019-03-28T08:42:41.753Z,13.45
2019-03-28T08:47:51.372Z,13.63
2019-03-28T08:52:54.000Z,13.64
2019-03-28T08:57:56.809Z,13.68
2019-03-28T09:02:59.364Z,13.76
2019-03-28T09:08:01.996Z,13.81
2019-03-28T09:13:05.919Z,13.90
2019-03-28T09:18:08.499Z,13.98
2019-03-28T09:23:11.255Z,14.11
2019-03-28T09:28:14.124Z,14.13
2019-03-28T09:33:17.319Z,14.21
2019-03-28T09:38:19.892Z,14.11
2019-03-28T09:43:24.541Z,14.19
2019-03-28T09:48:27.187Z,14.17
2019-03-28T09:53:29.848Z,14.15
2019-03-28T09:58:32.534Z,14.05
2019-03-28T10:03:35.125Z,14.06
2019-03-28T10:08:37.756Z,14.05
2019-03-28T10:13:40.359Z,14.12
2019-03-28T10:18:42.945Z,14.23
2019-03-28T10:23:47.396Z,14.37
2019-03-28T10:28:50.152Z,14.43
2019-03-28T10:33:52.822Z,14.61
2019-03-28T10:38:55.622Z,14.81
2019-03-28T10:43:58.283Z,14.86
2019-03-28T10:49:00.926Z,14.88
2019-03-28T10:54:03.551Z,14.92
2019-03-28T10:59:06.226Z,14.88
2019-03-28T11:04:08.944Z,14.86
2019-03-28T11:09:11.548Z,14.85
2019-03-28T11:14:14.239Z,14.85
2019-03-28T11:19:17.623Z,15.04
2019-03-28T11:24:21.557Z,15.17
2019-03-28T11:29:24.169Z,15.28
2019-03-28T11:34:26.757Z,15.48
2019-03-28T11:39:29.317Z,15.53
2019-03-28T11:44:33.803Z,15.57
2019-03-28T11:49:36.504Z,15.48
2019-03-28T11:54:41.270Z,15.45
2019-03-28T11:59:43.773Z,15.40
2019-03-28T12:04:46.403Z,15.34
2019-03-28T12:09:49.008Z,15.43
2019-03-28T12:14:51.636Z,15.45
2019-03-28T12:19:54.340Z,15.52
2019-03-28T12:24:57.000Z,15.51
2019-03-28T12:29:59.604Z,15.36
2019-03-28T12:35:02.306Z,15.23
2019-03-28T12:40:06.485Z,15.22
2019-03-28T12:45:10.307Z,15.32
2019-03-28T12:50:14.601Z,15.44
2019-03-28T12:55:17.193Z,15.38
2019-03-28T13:00:32.782Z,15.49
2019-03-28T13:05:35.439Z,15.48
2019-03-28T13:10:38.048Z,15.49
2019-03-28T13:15:40.703Z,15.39
2019-03-28T13:20:43.359Z,15.41
2019-03-28T13:25:45.943Z,15.47
2019-03-28T13:30:48.586Z,15.42
2019-03-28T13:35:51.216Z,15.30
2019-03-28T13:40:54.916Z,15.24
2019-03-28T13:45:58.807Z,15.10
2019-03-28T13:51:01.451Z,15.16
2019-03-28T13:56:04.070Z,15.07
2019-03-28T14:01:06.765Z,15.08
2019-03-28T14:06:11.464Z,15.03
2019-03-28T14:11:15.886Z,14.91
2019-03-28T14:16:18.476Z,14.90
2019-03-28T14:21:21.124Z,14.84
2019-03-28T14:26:24.629Z,14.87
2019-03-28T14:31:27.450Z,14.90
2019-03-28T14:36:30.066Z,14.92
2019-03-28T14:41:32.733Z,14.83
2019-03-28T14:46:35.450Z,14.81
2019-03-28T14:51:38.108Z,14.77
2019-03-28T14:56:41.719Z,14.76
2019-03-28T15:01:44.414Z,14.73
2019-03-28T15:06:47.058Z,14.66
2019-03-28T15:11:49.792Z,14.58
2019-03-28T15:16:52.484Z,14.53
2019-03-28T15:21:55.141Z,14.50
2019-03-28T15:26:58.034Z,14.51
2019-03-28T15:32:00.710Z,14.53
2019-03-28T15:37:03.508Z,14.58
2019-03-28T15:42:06.188Z,14.53
2019-03-28T15:47:08.867Z,14.52
2019-03-28T15:52:11.546Z,14.48
2019-03-28T15:57:15.368Z,14.49
2019-03-28T16:02:20.367Z,14.48
2019-03-28T16:07:23.046Z,14.45
2019-03-28T16:12:29.195Z,14.41
2019-03-28T16:17:31.781Z,14.36
2019-03-28T16:22:34.427Z,14.23
2019-03-28T16:27:37.083Z,14.15
2019-03-28T16:32:39.786Z,14.12
2019-03-28T16:37:42.540Z,14.04
2019-03-28T16:42:45.179Z,13.99
2019-03-28T16:47:47.791Z,13.98
2019-03-28T16:52:50.449Z,13.99
2019-03-28T16:57:53.856Z,13.92
2019-03-28T17:02:57.774Z,13.92
2019-03-28T17:08:03.312Z,13.89
2019-03-28T17:13:06.094Z,13.90
2019-03-28T17:18:10.915Z,13.89
2019-03-28T17:23:13.656Z,13.96
2019-03-28T17:28:16.294Z,13.99
2019-03-28T17:33:18.949Z,13.98
2019-03-28T17:38:23.287Z,13.95
2019-03-28T17:43:28.614Z,13.99
2019-03-28T17:48:32.061Z,14.02
2019-03-28T17:53:35.420Z,13.94
2019-03-28T17:58:38.840Z,13.93
2019-03-28T18:03:42.398Z,13.91
2019-03-28T18:08:46.049Z,13.93
2019-03-28T18:13:49.493Z,13.85
2019-03-28T18:18:52.594Z,13.71
2019-03-28T18:23:56.059Z,13.67
2019-03-28T18:28:59.378Z,13.63
2019-03-28T18:34:02.835Z,13.65
2019-03-28T18:39:07.063Z,13.67
2019-03-28T18:44:10.732Z,13.67
2019-03-28T18:49:15.804Z,13.67
2019-03-28T18:54:21.309Z,13.61
2019-03-28T18:59:24.307Z,13.62
2019-03-28T19:04:30.603Z,13.56
2019-03-28T19:09:35.002Z,13.58
2019-03-28T19:14:37.631Z,13.56
2019-03-28T19:19:40.202Z,13.52
2019-03-28T19:24:42.978Z,13.50
2019-03-28T19:29:48.392Z,13.44
2019-03-28T19:34:52.380Z,13.45
2019-03-28T19:39:57.030Z,13.47
2019-03-28T19:44:59.728Z,13.45
2019-03-28T19:50:02.500Z,13.43
2019-03-28T19:55:06.482Z,13.46
2019-03-28T20:00:10.663Z,13.48
2019-03-28T20:05:13.616Z,13.48
2019-03-28T20:10:17.731Z,13.52
2019-03-28T20:15:20.849Z,13.57
2019-03-28T20:20:23.632Z,13.60
2019-03-28T20:25:26.297Z,13.61
2019-03-28T20:30:28.807Z,13.59
2019-03-28T20:35:32.589Z,13.61
2019-03-28T20:40:35.232Z,13.64
2019-03-28T20:45:37.882Z,13.61
2019-03-28T20:50:40.593Z,13.63
2019-03-28T20:55:43.330Z,13.61
2019-03-28T21:00:47.113Z,13.62
2019-03-28T21:05:49.849Z,13.64
2019-03-28T21:10:52.618Z,13.60
2019-03-28T21:15:55.220Z,13.58
2019-03-28T21:20:59.735Z,13.60
2019-03-28T21:26:02.363Z,13.57
2019-03-28T21:31:05.006Z,13.56
2019-03-28T21:36:07.492Z,13.56
2019-03-28T21:41:10.175Z,13.57
2019-03-28T21:46:12.794Z,13.58
2019-03-28T21:51:15.430Z,13.56
2019-03-28T21:56:18.053Z,13.58
2019-03-28T22:01:20.631Z,13.55
2019-03-28T22:06:23.411Z,13.57
2019-03-28T22:11:26.221Z,13.54
2019-03-28T22:16:28.782Z,13.57
2019-03-28T22:21:31.408Z,13.52
2019-03-28T22:26:34.045Z,13.55
2019-03-28T22:31:36.626Z,13.59
2019-03-28T22:36:39.311Z,13.60
2019-03-28T22:41:41.838Z,13.63
2019-03-28T22:46:44.509Z,13.62
2019-03-28T22:51:47.189Z,13.64
2019-03-28T22:56:50.025Z,13.63
2019-03-28T23:01:52.913Z,13.64
2019-03-28T23:06:55.516Z,13.64
2019-03-28T23:12:00.469Z,13.65
2019-03-28T23:17:03.164Z,13.65
2019-03-28T23:22:05.758Z,13.66
2019-03-28T23:27:08.468Z,13.69
2019-03-28T23:32:11.083Z,13.69
2019-03-28T23:37:24.177Z,13.71
2019-03-28T23:42:19.841Z,13.71
2019-03-28T23:47:22.436Z,13.70
2019-03-28T23:52:25.083Z,13.67
2019-03-28T23:57:28.798Z,13.68
